Terminal Aerodrome Forecast
Issued by NWS

Home | Current Version | Previous Version | Text Only | Print | Product List | Glossary Off
Versions: 1 2 3 4 5 6 7 8 9 10 11 12 13 14 15 16 17 18 19 20 21 22 23 24 25 26 27 28 29 30

712
FTUS43 KLOT 042056 AAA
TAFDPA
TAF AMD
KDPA 042056Z 0421/0518 13008KT 1/2SM SN OVC004
      TEMPO 0421/0422 1/4SM +SN OVC004
     FM042300 19005KT 1 1/2SM -SN BR OVC005
     FM050100 25007KT 5SM -SNDZ BR OVC006
     FM050200 24008KT P6SM OVC008
     FM051500 19010KT P6SM BKN008=

USA.gov is the U.S. government's official web portal to all federal, state and local government web resources and services.